sensor_id;sensor_type;location;lat;lon;timestamp;P1;durP1;ratioP1;P2;durP2;ratioP2
2039;SDS011;1025;42.686;23.350;2023-04-03T00:03:18;11.90;;;10.33;;
2039;SDS011;1025;42.686;23.350;2023-04-03T00:06:45;14.17;;;10.60;;
2039;SDS011;1025;42.686;23.350;2023-04-03T00:10:11;11.93;;;10.70;;
2039;SDS011;1025;42.686;23.350;2023-04-03T00:13:37;11.73;;;9.20;;
2039;SDS011;1025;42.686;23.350;2023-04-03T00:17:03;9.30;;;8.00;;
2039;SDS011;1025;42.686;23.350;2023-04-03T00:20:29;7.43;;;6.63;;
2039;SDS011;1025;42.686;23.350;2023-04-03T00:23:56;11.77;;;8.93;;
2039;SDS011;1025;42.686;23.350;2023-04-03T00:27:21;10.60;;;8.50;;
2039;SDS011;1025;42.686;23.350;2023-04-03T00:30:48;9.03;;;7.40;;
2039;SDS011;1025;42.686;23.350;2023-04-03T00:34:14;10.90;;;7.97;;
2039;SDS011;1025;42.686;23.350;2023-04-03T00:37:40;9.13;;;7.67;;
2039;SDS011;1025;42.686;23.350;2023-04-03T00:41:07;11.03;;;7.67;;
2039;SDS011;1025;42.686;23.350;2023-04-03T00:48:18;11.83;;;8.73;;
2039;SDS011;1025;42.686;23.350;2023-04-03T00:51:45;15.10;;;8.70;;
2039;SDS011;1025;42.686;23.350;2023-04-03T00:55:14;8.97;;;7.20;;
2039;SDS011;1025;42.686;23.350;2023-04-03T00:58:45;10.00;;;6.27;;
2039;SDS011;1025;42.686;23.350;2023-04-03T01:02:13;10.53;;;8.40;;
2039;SDS011;1025;42.686;23.350;2023-04-03T01:05:35;12.80;;;6.87;;
2039;SDS011;1025;42.686;23.350;2023-04-03T01:09:03;7.10;;;6.30;;
2039;SDS011;1025;42.686;23.350;2023-04-03T01:12:32;10.27;;;7.30;;
2039;SDS011;1025;42.686;23.350;2023-04-03T01:16:00;8.27;;;6.83;;
2039;SDS011;1025;42.686;23.350;2023-04-03T01:19:26;10.80;;;6.37;;
2039;SDS011;1025;42.686;23.350;2023-04-03T01:23:08;7.47;;;5.80;;
2039;SDS011;1025;42.686;23.350;2023-04-03T01:26:41;9.70;;;7.10;;
2039;SDS011;1025;42.686;23.350;2023-04-03T01:30:08;9.70;;;6.47;;
2039;SDS011;1025;42.686;23.350;2023-04-03T01:33:40;9.23;;;7.20;;
2039;SDS011;1025;42.686;23.350;2023-04-03T01:37:05;8.20;;;5.80;;
2039;SDS011;1025;42.686;23.350;2023-04-03T01:40:30;11.73;;;6.63;;
2039;SDS011;1025;42.686;23.350;2023-04-03T01:43:55;12.57;;;7.23;;
2039;SDS011;1025;42.686;23.350;2023-04-03T01:47:21;8.53;;;6.63;;
2039;SDS011;1025;42.686;23.350;2023-04-03T01:50:48;6.97;;;6.27;;
2039;SDS011;1025;42.686;23.350;2023-04-03T01:54:13;7.47;;;6.23;;
2039;SDS011;1025;42.686;23.350;2023-04-03T01:57:38;11.77;;;6.70;;
2039;SDS011;1025;42.686;23.350;2023-04-03T02:01:04;4.33;;;3.83;;
2039;SDS011;1025;42.686;23.350;2023-04-03T02:04:30;4.87;;;4.43;;
2039;SDS011;1025;42.686;23.350;2023-04-03T02:07:56;4.67;;;4.03;;
2039;SDS011;1025;42.686;23.350;2023-04-03T02:11:22;5.50;;;4.97;;
2039;SDS011;1025;42.686;23.350;2023-04-03T02:14:47;7.43;;;4.97;;
2039;SDS011;1025;42.686;23.350;2023-04-03T02:18:12;5.47;;;4.97;;
2039;SDS011;1025;42.686;23.350;2023-04-03T02:21:38;4.70;;;4.37;;
2039;SDS011;1025;42.686;23.350;2023-04-03T02:25:05;5.10;;;4.60;;
2039;SDS011;1025;42.686;23.350;2023-04-03T02:28:32;4.87;;;4.47;;
2039;SDS011;1025;42.686;23.350;2023-04-03T02:31:57;10.00;;;5.57;;
2039;SDS011;1025;42.686;23.350;2023-04-03T02:35:23;7.63;;;5.00;;
2039;SDS011;1025;42.686;23.350;2023-04-03T02:38:48;5.60;;;5.10;;
2039;SDS011;1025;42.686;23.350;2023-04-03T02:42:15;12.87;;;6.77;;
2039;SDS011;1025;42.686;23.350;2023-04-03T02:45:40;9.10;;;6.10;;
2039;SDS011;1025;42.686;23.350;2023-04-03T02:49:05;8.60;;;6.83;;
2039;SDS011;1025;42.686;23.350;2023-04-03T02:52:31;8.30;;;7.33;;
2039;SDS011;1025;42.686;23.350;2023-04-03T02:55:56;10.57;;;8.83;;
2039;SDS011;1025;42.686;23.350;2023-04-03T02:59:23;10.83;;;9.70;;
2039;SDS011;1025;42.686;23.350;2023-04-03T03:02:48;9.50;;;8.60;;
2039;SDS011;1025;42.686;23.350;2023-04-03T03:06:14;16.07;;;10.03;;
2039;SDS011;1025;42.686;23.350;2023-04-03T03:09:40;11.43;;;9.70;;
2039;SDS011;1025;42.686;23.350;2023-04-03T03:13:05;10.50;;;9.30;;
2039;SDS011;1025;42.686;23.350;2023-04-03T03:16:32;15.13;;;8.90;;
2039;SDS011;1025;42.686;23.350;2023-04-03T03:19:57;12.10;;;9.53;;
2039;SDS011;1025;42.686;23.350;2023-04-03T03:23:24;23.37;;;12.10;;
2039;SDS011;1025;42.686;23.350;2023-04-03T03:26:50;14.00;;;10.97;;
2039;SDS011;1025;42.686;23.350;2023-04-03T03:30:15;26.20;;;12.23;;
2039;SDS011;1025;42.686;23.350;2023-04-03T03:33:42;23.20;;;11.63;;
2039;SDS011;1025;42.686;23.350;2023-04-03T03:37:10;13.27;;;10.07;;
2039;SDS011;1025;42.686;23.350;2023-04-03T03:40:36;13.10;;;10.07;;
2039;SDS011;1025;42.686;23.350;2023-04-03T03:44:01;21.90;;;13.50;;
2039;SDS011;1025;42.686;23.350;2023-04-03T03:47:26;7.10;;;6.47;;
2039;SDS011;1025;42.686;23.350;2023-04-03T03:50:53;10.07;;;8.23;;
2039;SDS011;1025;42.686;23.350;2023-04-03T03:54:18;15.23;;;8.77;;
2039;SDS011;1025;42.686;23.350;2023-04-03T03:57:43;12.10;;;8.10;;
2039;SDS011;1025;42.686;23.350;2023-04-03T04:01:09;16.30;;;8.80;;
2039;SDS011;1025;42.686;23.350;2023-04-03T04:04:34;13.30;;;9.90;;
2039;SDS011;1025;42.686;23.350;2023-04-03T04:08:01;24.33;;;10.90;;
2039;SDS011;1025;42.686;23.350;2023-04-03T04:11:26;23.00;;;11.97;;
2039;SDS011;1025;42.686;23.350;2023-04-03T04:14:51;18.83;;;12.93;;
2039;SDS011;1025;42.686;23.350;2023-04-03T04:18:17;23.03;;;12.97;;
2039;SDS011;1025;42.686;23.350;2023-04-03T04:21:42;19.50;;;12.50;;
2039;SDS011;1025;42.686;23.350;2023-04-03T04:25:09;17.40;;;10.83;;
2039;SDS011;1025;42.686;23.350;2023-04-03T04:28:34;33.17;;;12.77;;
2039;SDS011;1025;42.686;23.350;2023-04-03T04:32:01;18.30;;;12.07;;
2039;SDS011;1025;42.686;23.350;2023-04-03T04:35:26;22.03;;;11.87;;
2039;SDS011;1025;42.686;23.350;2023-04-03T04:38:52;14.93;;;11.03;;
2039;SDS011;1025;42.686;23.350;2023-04-03T04:42:18;20.37;;;12.23;;
2039;SDS011;1025;42.686;23.350;2023-04-03T04:45:44;17.70;;;11.83;;
2039;SDS011;1025;42.686;23.350;2023-04-03T04:49:09;20.27;;;12.77;;
2039;SDS011;1025;42.686;23.350;2023-04-03T04:52:35;15.07;;;10.90;;
2039;SDS011;1025;42.686;23.350;2023-04-03T04:56:00;21.70;;;11.30;;
2039;SDS011;1025;42.686;23.350;2023-04-03T04:59:27;17.53;;;11.17;;
2039;SDS011;1025;42.686;23.350;2023-04-03T05:02:52;20.23;;;10.80;;
2039;SDS011;1025;42.686;23.350;2023-04-03T05:06:18;13.60;;;9.70;;
2039;SDS011;1025;42.686;23.350;2023-04-03T05:09:44;12.20;;;10.47;;
2039;SDS011;1025;42.686;23.350;2023-04-03T05:13:10;18.30;;;12.53;;
2039;SDS011;1025;42.686;23.350;2023-04-03T05:16:37;18.53;;;12.30;;
2039;SDS011;1025;42.686;23.350;2023-04-03T05:20:02;16.63;;;11.63;;
2039;SDS011;1025;42.686;23.350;2023-04-03T05:23:28;19.07;;;12.87;;
2039;SDS011;1025;42.686;23.350;2023-04-03T05:26:53;24.40;;;11.80;;
2039;SDS011;1025;42.686;23.350;2023-04-03T05:30:18;20.53;;;11.60;;
2039;SDS011;1025;42.686;23.350;2023-04-03T05:33:45;18.83;;;13.00;;
2039;SDS011;1025;42.686;23.350;2023-04-03T05:37:10;28.37;;;12.60;;
2039;SDS011;1025;42.686;23.350;2023-04-03T05:40:36;20.90;;;11.27;;
2039;SDS011;1025;42.686;23.350;2023-04-03T05:44:01;30.93;;;12.80;;
2039;SDS011;1025;42.686;23.350;2023-04-03T05:47:26;30.53;;;14.37;;
2039;SDS011;1025;42.686;23.350;2023-04-03T05:50:53;27.53;;;14.20;;
2039;SDS011;1025;42.686;23.350;2023-04-03T05:54:20;23.30;;;15.57;;
2039;SDS011;1025;42.686;23.350;2023-04-03T05:57:46;25.50;;;18.20;;
2039;SDS011;1025;42.686;23.350;2023-04-03T06:01:12;31.67;;;22.07;;
2039;SDS011;1025;42.686;23.350;2023-04-03T06:04:20;18.63;;;14.57;;
2039;SDS011;1025;42.686;23.350;2023-04-03T06:07:47;18.80;;;13.37;;
2039;SDS011;1025;42.686;23.350;2023-04-03T06:11:12;21.23;;;13.57;;
2039;SDS011;1025;42.686;23.350;2023-04-03T06:14:38;19.03;;;15.57;;
2039;SDS011;1025;42.686;23.350;2023-04-03T06:18:04;33.50;;;19.40;;
2039;SDS011;1025;42.686;23.350;2023-04-03T06:21:31;26.87;;;18.43;;
2039;SDS011;1025;42.686;23.350;2023-04-03T06:24:58;45.93;;;20.80;;
2039;SDS011;1025;42.686;23.350;2023-04-03T06:28:23;27.07;;;20.80;;
2039;SDS011;1025;42.686;23.350;2023-04-03T06:31:49;26.93;;;17.43;;
2039;SDS011;1025;42.686;23.350;2023-04-03T06:35:15;26.53;;;16.33;;
2039;SDS011;1025;42.686;23.350;2023-04-03T06:38:45;17.87;;;14.20;;
2039;SDS011;1025;42.686;23.350;2023-04-03T06:42:11;18.90;;;15.70;;
2039;SDS011;1025;42.686;23.350;2023-04-03T06:45:37;23.60;;;16.27;;
2039;SDS011;1025;42.686;23.350;2023-04-03T06:49:03;16.47;;;14.83;;
2039;SDS011;1025;42.686;23.350;2023-04-03T06:52:28;23.87;;;13.70;;
2039;SDS011;1025;42.686;23.350;2023-04-03T06:55:53;24.47;;;15.47;;
2039;SDS011;1025;42.686;23.350;2023-04-03T06:59:20;22.60;;;14.50;;
2039;SDS011;1025;42.686;23.350;2023-04-03T07:02:46;19.20;;;14.23;;
2039;SDS011;1025;42.686;23.350;2023-04-03T07:06:13;24.97;;;12.70;;
2039;SDS011;1025;42.686;23.350;2023-04-03T07:09:38;26.50;;;14.47;;
2039;SDS011;1025;42.686;23.350;2023-04-03T07:13:04;25.93;;;14.00;;
2039;SDS011;1025;42.686;23.350;2023-04-03T07:16:32;14.50;;;12.47;;
2039;SDS011;1025;42.686;23.350;2023-04-03T07:19:58;21.83;;;11.60;;
2039;SDS011;1025;42.686;23.350;2023-04-03T07:23:23;14.90;;;10.63;;
2039;SDS011;1025;42.686;23.350;2023-04-03T07:26:49;25.13;;;11.40;;
2039;SDS011;1025;42.686;23.350;2023-04-03T07:30:15;10.50;;;9.50;;
2039;SDS011;1025;42.686;23.350;2023-04-03T07:33:43;10.90;;;9.80;;
2039;SDS011;1025;42.686;23.350;2023-04-03T07:37:09;13.23;;;9.33;;
2039;SDS011;1025;42.686;23.350;2023-04-03T07:40:34;13.50;;;9.30;;
2039;SDS011;1025;42.686;23.350;2023-04-03T07:43:59;18.17;;;11.80;;
2039;SDS011;1025;42.686;23.350;2023-04-03T07:47:25;23.77;;;15.90;;
2039;SDS011;1025;42.686;23.350;2023-04-03T07:50:52;20.03;;;16.10;;
2039;SDS011;1025;42.686;23.350;2023-04-03T07:54:18;23.00;;;16.00;;
2039;SDS011;1025;42.686;23.350;2023-04-03T07:57:43;19.17;;;16.93;;
2039;SDS011;1025;42.686;23.350;2023-04-03T08:01:09;20.00;;;16.93;;
2039;SDS011;1025;42.686;23.350;2023-04-03T08:04:35;21.80;;;17.20;;
2039;SDS011;1025;42.686;23.350;2023-04-03T08:08:04;24.80;;;17.20;;
2039;SDS011;1025;42.686;23.350;2023-04-03T08:11:30;34.33;;;19.40;;
2039;SDS011;1025;42.686;23.350;2023-04-03T08:14:57;18.93;;;16.33;;
2039;SDS011;1025;42.686;23.350;2023-04-03T08:18:24;18.50;;;16.20;;
2039;SDS011;1025;42.686;23.350;2023-04-03T08:21:49;22.60;;;14.87;;
2039;SDS011;1025;42.686;23.350;2023-04-03T08:25:16;21.43;;;16.53;;
2039;SDS011;1025;42.686;23.350;2023-04-03T08:28:42;19.23;;;14.53;;
2039;SDS011;1025;42.686;23.350;2023-04-03T08:32:07;16.73;;;15.03;;
2039;SDS011;1025;42.686;23.350;2023-04-03T08:35:33;16.27;;;14.70;;
2039;SDS011;1025;42.686;23.350;2023-04-03T08:38:58;26.17;;;15.23;;
2039;SDS011;1025;42.686;23.350;2023-04-03T08:42:30;17.30;;;15.53;;
2039;SDS011;1025;42.686;23.350;2023-04-03T08:46:05;16.73;;;15.07;;
2039;SDS011;1025;42.686;23.350;2023-04-03T08:49:38;15.23;;;12.37;;
2039;SDS011;1025;42.686;23.350;2023-04-03T08:53:06;20.80;;;12.23;;
2039;SDS011;1025;42.686;23.350;2023-04-03T08:56:42;12.97;;;11.63;;
2039;SDS011;1025;42.686;23.350;2023-04-03T09:00:15;22.90;;;14.63;;
2039;SDS011;1025;42.686;23.350;2023-04-03T09:03:45;23.53;;;13.80;;
2039;SDS011;1025;42.686;23.350;2023-04-03T09:07:12;14.37;;;12.73;;
2039;SDS011;1025;42.686;23.350;2023-04-03T09:10:42;14.60;;;11.10;;
2039;SDS011;1025;42.686;23.350;2023-04-03T09:14:15;13.63;;;12.27;;
2039;SDS011;1025;42.686;23.350;2023-04-03T09:21:34;19.27;;;13.70;;
2039;SDS011;1025;42.686;23.350;2023-04-03T09:25:05;11.83;;;10.40;;
2039;SDS011;1025;42.686;23.350;2023-04-03T09:28:37;12.50;;;11.20;;
2039;SDS011;1025;42.686;23.350;2023-04-03T09:32:12;18.67;;;11.50;;
2039;SDS011;1025;42.686;23.350;2023-04-03T09:35:43;11.50;;;10.33;;
2039;SDS011;1025;42.686;23.350;2023-04-03T09:39:10;12.53;;;10.30;;
2039;SDS011;1025;42.686;23.350;2023-04-03T09:42:55;13.00;;;11.03;;
2039;SDS011;1025;42.686;23.350;2023-04-03T09:46:28;12.63;;;11.43;;
2039;SDS011;1025;42.686;23.350;2023-04-03T09:50:08;20.87;;;13.40;;
2039;SDS011;1025;42.686;23.350;2023-04-03T09:53:42;15.17;;;13.57;;
2039;SDS011;1025;42.686;23.350;2023-04-03T09:57:08;12.37;;;11.23;;
2039;SDS011;1025;42.686;23.350;2023-04-03T10:00:53;18.00;;;13.07;;
2039;SDS011;1025;42.686;23.350;2023-04-03T10:04:24;19.40;;;11.87;;
2039;SDS011;1025;42.686;23.350;2023-04-03T10:07:52;12.10;;;10.90;;
2039;SDS011;1025;42.686;23.350;2023-04-03T10:11:32;10.00;;;8.80;;
2039;SDS011;1025;42.686;23.350;2023-04-03T10:14:58;10.10;;;9.10;;
2039;SDS011;1025;42.686;23.350;2023-04-03T10:18:31;10.90;;;9.83;;
2039;SDS011;1025;42.686;23.350;2023-04-03T10:22:04;14.73;;;10.53;;
2039;SDS011;1025;42.686;23.350;2023-04-03T10:25:43;18.40;;;10.80;;
2039;SDS011;1025;42.686;23.350;2023-04-03T10:29:19;14.50;;;11.00;;
2039;SDS011;1025;42.686;23.350;2023-04-03T10:32:58;9.10;;;8.20;;
2039;SDS011;1025;42.686;23.350;2023-04-03T10:36:34;10.67;;;9.40;;
2039;SDS011;1025;42.686;23.350;2023-04-03T10:40:09;11.10;;;8.37;;
2039;SDS011;1025;42.686;23.350;2023-04-03T10:43:41;16.40;;;10.43;;
2039;SDS011;1025;42.686;23.350;2023-04-03T10:47:17;7.00;;;6.40;;
2039;SDS011;1025;42.686;23.350;2023-04-03T10:50:55;9.80;;;7.93;;
2039;SDS011;1025;42.686;23.350;2023-04-03T10:54:26;10.60;;;8.20;;
2039;SDS011;1025;42.686;23.350;2023-04-03T10:58:00;8.90;;;7.00;;
2039;SDS011;1025;42.686;23.350;2023-04-03T11:01:31;8.47;;;7.20;;
2039;SDS011;1025;42.686;23.350;2023-04-03T11:04:59;8.33;;;5.50;;
2039;SDS011;1025;42.686;23.350;2023-04-03T11:08:28;8.67;;;5.03;;
2039;SDS011;1025;42.686;23.350;2023-04-03T11:12:00;8.60;;;4.73;;
2039;SDS011;1025;42.686;23.350;2023-04-03T11:15:31;9.60;;;4.13;;
2039;SDS011;1025;42.686;23.350;2023-04-03T11:19:01;6.40;;;4.23;;
2039;SDS011;1025;42.686;23.350;2023-04-03T11:22:35;7.37;;;3.20;;
2039;SDS011;1025;42.686;23.350;2023-04-03T11:26:07;6.10;;;3.37;;
2039;SDS011;1025;42.686;23.350;2023-04-03T11:29:41;4.10;;;3.70;;
2039;SDS011;1025;42.686;23.350;2023-04-03T11:33:15;4.50;;;3.70;;
2039;SDS011;1025;42.686;23.350;2023-04-03T11:36:53;5.87;;;3.87;;
2039;SDS011;1025;42.686;23.350;2023-04-03T11:40:22;3.13;;;2.90;;
2039;SDS011;1025;42.686;23.350;2023-04-03T11:43:56;4.90;;;4.50;;
2039;SDS011;1025;42.686;23.350;2023-04-03T11:47:46;4.07;;;3.77;;
2039;SDS011;1025;42.686;23.350;2023-04-03T12:14:47;3.30;;;3.10;;
2039;SDS011;1025;42.686;23.350;2023-04-03T12:18:40;3.80;;;3.50;;
2039;SDS011;1025;42.686;23.350;2023-04-03T12:22:16;5.07;;;3.80;;
2039;SDS011;1025;42.686;23.350;2023-04-03T12:25:59;3.70;;;3.50;;
2039;SDS011;1025;42.686;23.350;2023-04-03T12:29:32;3.90;;;3.70;;
2039;SDS011;1025;42.686;23.350;2023-04-03T12:33:11;3.33;;;3.10;;
2039;SDS011;1025;42.686;23.350;2023-04-03T12:36:47;8.03;;;7.30;;
2039;SDS011;1025;42.686;23.350;2023-04-03T12:40:34;8.40;;;4.17;;
2039;SDS011;1025;42.686;23.350;2023-04-03T12:44:08;4.33;;;4.03;;
2039;SDS011;1025;42.686;23.350;2023-04-03T12:47:44;4.40;;;3.93;;
2039;SDS011;1025;42.686;23.350;2023-04-03T12:51:14;4.10;;;3.90;;
2039;SDS011;1025;42.686;23.350;2023-04-03T12:54:46;4.70;;;4.10;;
2039;SDS011;1025;42.686;23.350;2023-04-03T12:58:15;5.40;;;4.90;;
2039;SDS011;1025;42.686;23.350;2023-04-03T13:01:42;8.13;;;5.60;;
2039;SDS011;1025;42.686;23.350;2023-04-03T13:05:15;5.50;;;4.97;;
2039;SDS011;1025;42.686;23.350;2023-04-03T13:08:48;5.87;;;5.43;;
2039;SDS011;1025;42.686;23.350;2023-04-03T13:12:21;4.77;;;4.40;;
2039;SDS011;1025;42.686;23.350;2023-04-03T13:15:48;6.73;;;6.13;;
2039;SDS011;1025;42.686;23.350;2023-04-03T13:19:22;6.43;;;6.03;;
2039;SDS011;1025;42.686;23.350;2023-04-03T13:22:52;5.90;;;5.47;;
2039;SDS011;1025;42.686;23.350;2023-04-03T13:26:22;6.90;;;6.27;;
2039;SDS011;1025;42.686;23.350;2023-04-03T13:29:49;6.53;;;5.93;;
2039;SDS011;1025;42.686;23.350;2023-04-03T13:33:27;5.87;;;5.37;;
2039;SDS011;1025;42.686;23.350;2023-04-03T13:36:57;6.40;;;5.90;;
2039;SDS011;1025;42.686;23.350;2023-04-03T13:40:25;8.10;;;7.40;;
2039;SDS011;1025;42.686;23.350;2023-04-03T13:43:51;9.33;;;8.00;;
2039;SDS011;1025;42.686;23.350;2023-04-03T13:47:37;7.63;;;5.67;;
2039;SDS011;1025;42.686;23.350;2023-04-03T13:51:06;9.33;;;7.07;;
2039;SDS011;1025;42.686;23.350;2023-04-03T13:54:54;7.50;;;6.97;;
2039;SDS011;1025;42.686;23.350;2023-04-03T13:58:23;6.83;;;6.30;;
2039;SDS011;1025;42.686;23.350;2023-04-03T14:01:51;7.37;;;6.83;;
2039;SDS011;1025;42.686;23.350;2023-04-03T14:05:21;8.37;;;7.77;;
2039;SDS011;1025;42.686;23.350;2023-04-03T14:08:48;8.80;;;8.20;;
2039;SDS011;1025;42.686;23.350;2023-04-03T14:12:15;9.50;;;8.60;;
2039;SDS011;1025;42.686;23.350;2023-04-03T14:15:42;8.57;;;7.87;;
2039;SDS011;1025;42.686;23.350;2023-04-03T14:19:21;8.10;;;7.50;;
2039;SDS011;1025;42.686;23.350;2023-04-03T14:22:48;10.27;;;9.57;;
2039;SDS011;1025;42.686;23.350;2023-04-03T14:26:16;8.47;;;7.80;;
2039;SDS011;1025;42.686;23.350;2023-04-03T14:29:44;8.57;;;7.70;;
2039;SDS011;1025;42.686;23.350;2023-04-03T14:33:13;9.17;;;8.37;;
2039;SDS011;1025;42.686;23.350;2023-04-03T14:36:39;8.33;;;7.63;;
2039;SDS011;1025;42.686;23.350;2023-04-03T14:40:07;6.87;;;6.37;;
2039;SDS011;1025;42.686;23.350;2023-04-03T14:43:33;5.60;;;5.20;;
2039;SDS011;1025;42.686;23.350;2023-04-03T14:46:58;5.50;;;5.20;;
2039;SDS011;1025;42.686;23.350;2023-04-03T14:50:26;6.97;;;6.47;;
2039;SDS011;1025;42.686;23.350;2023-04-03T14:53:51;6.60;;;6.00;;
2039;SDS011;1025;42.686;23.350;2023-04-03T14:57:19;5.70;;;5.27;;
2039;SDS011;1025;42.686;23.350;2023-04-03T15:00:47;4.50;;;4.20;;
2039;SDS011;1025;42.686;23.350;2023-04-03T15:04:12;4.43;;;4.13;;
2039;SDS011;1025;42.686;23.350;2023-04-03T15:07:34;7.27;;;4.97;;
2039;SDS011;1025;42.686;23.350;2023-04-03T15:10:58;4.37;;;4.07;;
2039;SDS011;1025;42.686;23.350;2023-04-03T15:14:25;4.30;;;4.00;;
2039;SDS011;1025;42.686;23.350;2023-04-03T15:17:45;4.53;;;4.23;;
2039;SDS011;1025;42.686;23.350;2023-04-03T15:21:04;4.10;;;3.80;;
2039;SDS011;1025;42.686;23.350;2023-04-03T15:24:29;4.37;;;4.03;;
2039;SDS011;1025;42.686;23.350;2023-04-03T15:27:55;4.33;;;4.07;;
2039;SDS011;1025;42.686;23.350;2023-04-03T15:31:22;4.30;;;4.00;;
2039;SDS011;1025;42.686;23.350;2023-04-03T15:34:46;5.97;;;5.43;;
2039;SDS011;1025;42.686;23.350;2023-04-03T15:38:12;7.43;;;5.00;;
2039;SDS011;1025;42.686;23.350;2023-04-03T15:41:37;4.80;;;4.50;;
2039;SDS011;1025;42.686;23.350;2023-04-03T15:45:02;6.17;;;5.57;;
2039;SDS011;1025;42.686;23.350;2023-04-03T15:48:30;5.30;;;5.00;;
2039;SDS011;1025;42.686;23.350;2023-04-03T15:51:56;4.60;;;4.30;;
2039;SDS011;1025;42.686;23.350;2023-04-03T15:55:09;5.53;;;5.07;;
2039;SDS011;1025;42.686;23.350;2023-04-03T15:58:25;9.53;;;6.13;;
2039;SDS011;1025;42.686;23.350;2023-04-03T16:01:35;8.23;;;7.50;;
2039;SDS011;1025;42.686;23.350;2023-04-03T16:04:59;7.20;;;6.70;;
2039;SDS011;1025;42.686;23.350;2023-04-03T16:08:21;4.90;;;4.60;;
2039;SDS011;1025;42.686;23.350;2023-04-03T16:11:45;5.67;;;5.27;;
2039;SDS011;1025;42.686;23.350;2023-04-03T16:15:09;5.90;;;5.50;;
2039;SDS011;1025;42.686;23.350;2023-04-03T16:18:32;7.07;;;6.57;;
2039;SDS011;1025;42.686;23.350;2023-04-03T16:22:00;6.00;;;5.60;;
2039;SDS011;1025;42.686;23.350;2023-04-03T16:25:25;7.97;;;7.37;;
2039;SDS011;1025;42.686;23.350;2023-04-03T16:28:49;9.73;;;9.03;;
2039;SDS011;1025;42.686;23.350;2023-04-03T16:32:14;12.43;;;9.70;;
2039;SDS011;1025;42.686;23.350;2023-04-03T16:35:39;8.80;;;8.17;;
2039;SDS011;1025;42.686;23.350;2023-04-03T16:39:06;9.10;;;8.30;;
2039;SDS011;1025;42.686;23.350;2023-04-03T16:42:32;8.63;;;7.90;;
2039;SDS011;1025;42.686;23.350;2023-04-03T16:45:56;8.93;;;8.33;;
2039;SDS011;1025;42.686;23.350;2023-04-03T16:49:20;8.70;;;8.00;;
2039;SDS011;1025;42.686;23.350;2023-04-03T16:52:45;7.53;;;6.90;;
2039;SDS011;1025;42.686;23.350;2023-04-03T16:56:12;7.70;;;7.10;;
2039;SDS011;1025;42.686;23.350;2023-04-03T16:59:37;6.93;;;5.90;;
2039;SDS011;1025;42.686;23.350;2023-04-03T17:03:02;7.10;;;6.43;;
2039;SDS011;1025;42.686;23.350;2023-04-03T17:06:28;6.30;;;5.80;;
2039;SDS011;1025;42.686;23.350;2023-04-03T17:09:51;6.83;;;6.10;;
2039;SDS011;1025;42.686;23.350;2023-04-03T17:13:17;4.53;;;4.23;;
2039;SDS011;1025;42.686;23.350;2023-04-03T17:16:42;4.67;;;4.37;;
2039;SDS011;1025;42.686;23.350;2023-04-03T17:20:08;3.83;;;3.60;;
2039;SDS011;1025;42.686;23.350;2023-04-03T17:23:34;4.40;;;4.20;;
2039;SDS011;1025;42.686;23.350;2023-04-03T17:27:00;3.73;;;3.53;;
2039;SDS011;1025;42.686;23.350;2023-04-03T17:30:27;4.87;;;3.47;;
2039;SDS011;1025;42.686;23.350;2023-04-03T17:33:52;6.00;;;4.90;;
2039;SDS011;1025;42.686;23.350;2023-04-03T17:37:17;6.47;;;5.87;;
2039;SDS011;1025;42.686;23.350;2023-04-03T17:40:43;6.90;;;6.30;;
2039;SDS011;1025;42.686;23.350;2023-04-03T17:44:09;6.73;;;6.13;;
2039;SDS011;1025;42.686;23.350;2023-04-03T17:47:36;5.20;;;4.90;;
2039;SDS011;1025;42.686;23.350;2023-04-03T17:51:03;5.00;;;4.70;;
2039;SDS011;1025;42.686;23.350;2023-04-03T17:54:29;6.20;;;5.57;;
2039;SDS011;1025;42.686;23.350;2023-04-03T17:57:54;3.77;;;3.50;;
2039;SDS011;1025;42.686;23.350;2023-04-03T18:01:21;3.90;;;3.60;;
2039;SDS011;1025;42.686;23.350;2023-04-03T18:04:49;4.10;;;3.73;;
2039;SDS011;1025;42.686;23.350;2023-04-03T18:08:14;4.57;;;4.37;;
2039;SDS011;1025;42.686;23.350;2023-04-03T18:11:41;4.47;;;4.10;;
2039;SDS011;1025;42.686;23.350;2023-04-03T18:15:07;5.60;;;4.00;;
2039;SDS011;1025;42.686;23.350;2023-04-03T18:18:34;3.63;;;3.43;;
2039;SDS011;1025;42.686;23.350;2023-04-03T18:22:02;3.87;;;3.50;;
2039;SDS011;1025;42.686;23.350;2023-04-03T18:25:29;4.53;;;4.13;;
2039;SDS011;1025;42.686;23.350;2023-04-03T18:28:56;4.90;;;4.47;;
2039;SDS011;1025;42.686;23.350;2023-04-03T18:32:23;5.27;;;4.77;;
2039;SDS011;1025;42.686;23.350;2023-04-03T18:35:50;5.87;;;5.40;;
2039;SDS011;1025;42.686;23.350;2023-04-03T18:39:17;4.87;;;4.47;;
2039;SDS011;1025;42.686;23.350;2023-04-03T18:42:43;5.87;;;5.50;;
2039;SDS011;1025;42.686;23.350;2023-04-03T18:46:08;4.83;;;4.43;;
2039;SDS011;1025;42.686;23.350;2023-04-03T18:49:35;4.80;;;4.50;;
2039;SDS011;1025;42.686;23.350;2023-04-03T18:53:01;5.47;;;4.97;;
2039;SDS011;1025;42.686;23.350;2023-04-03T18:56:28;4.40;;;4.00;;
2039;SDS011;1025;42.686;23.350;2023-04-03T18:59:54;4.80;;;4.50;;
2039;SDS011;1025;42.686;23.350;2023-04-03T19:03:20;6.13;;;4.30;;
2039;SDS011;1025;42.686;23.350;2023-04-03T19:06:43;4.47;;;4.17;;
2039;SDS011;1025;42.686;23.350;2023-04-03T19:10:06;5.17;;;4.23;;
2039;SDS011;1025;42.686;23.350;2023-04-03T19:13:31;4.57;;;3.30;;
2039;SDS011;1025;42.686;23.350;2023-04-03T19:16:57;4.10;;;3.90;;
2039;SDS011;1025;42.686;23.350;2023-04-03T19:20:22;4.20;;;3.90;;
2039;SDS011;1025;42.686;23.350;2023-04-03T19:23:47;3.80;;;3.37;;
2039;SDS011;1025;42.686;23.350;2023-04-03T19:27:12;2.90;;;2.80;;
2039;SDS011;1025;42.686;23.350;2023-04-03T19:30:35;2.90;;;2.70;;
2039;SDS011;1025;42.686;23.350;2023-04-03T19:33:53;2.30;;;2.20;;
2039;SDS011;1025;42.686;23.350;2023-04-03T19:37:16;2.50;;;2.30;;
2039;SDS011;1025;42.686;23.350;2023-04-03T19:40:38;1.80;;;1.70;;
2039;SDS011;1025;42.686;23.350;2023-04-03T19:44:07;2.00;;;1.90;;
2039;SDS011;1025;42.686;23.350;2023-04-03T19:47:35;2.37;;;2.27;;
2039;SDS011;1025;42.686;23.350;2023-04-03T19:51:00;2.40;;;2.30;;
2039;SDS011;1025;42.686;23.350;2023-04-03T19:54:24;3.47;;;2.63;;
2039;SDS011;1025;42.686;23.350;2023-04-03T19:57:09;4.00;;;3.30;;
2039;SDS011;1025;42.686;23.350;2023-04-03T20:00:27;3.63;;;3.43;;
2039;SDS011;1025;42.686;23.350;2023-04-03T20:03:56;3.67;;;3.20;;
2039;SDS011;1025;42.686;23.350;2023-04-03T20:07:21;3.63;;;3.40;;
2039;SDS011;1025;42.686;23.350;2023-04-03T20:10:47;2.50;;;2.40;;
2039;SDS011;1025;42.686;23.350;2023-04-03T20:14:12;2.80;;;2.60;;
2039;SDS011;1025;42.686;23.350;2023-04-03T20:17:37;4.67;;;2.80;;
2039;SDS011;1025;42.686;23.350;2023-04-03T20:21:05;3.00;;;2.90;;
2039;SDS011;1025;42.686;23.350;2023-04-03T20:24:31;4.03;;;3.60;;
2039;SDS011;1025;42.686;23.350;2023-04-03T20:27:55;3.47;;;3.27;;
2039;SDS011;1025;42.686;23.350;2023-04-03T20:31:11;3.73;;;3.53;;
2039;SDS011;1025;42.686;23.350;2023-04-03T20:34:39;2.40;;;2.30;;
2039;SDS011;1025;42.686;23.350;2023-04-03T20:38:06;5.23;;;2.53;;
2039;SDS011;1025;42.686;23.350;2023-04-03T20:40:47;5.10;;;2.73;;
2039;SDS011;1025;42.686;23.350;2023-04-03T20:44:14;2.80;;;2.63;;
2039;SDS011;1025;42.686;23.350;2023-04-03T20:46:45;2.87;;;2.67;;
2039;SDS011;1025;42.686;23.350;2023-04-03T20:49:12;2.93;;;2.67;;
2039;SDS011;1025;42.686;23.350;2023-04-03T20:52:37;4.30;;;3.00;;
2039;SDS011;1025;42.686;23.350;2023-04-03T20:56:04;6.00;;;2.27;;
2039;SDS011;1025;42.686;23.350;2023-04-03T20:59:30;2.73;;;2.20;;
2039;SDS011;1025;42.686;23.350;2023-04-03T21:02:57;3.00;;;2.50;;
2039;SDS011;1025;42.686;23.350;2023-04-03T21:21:49;2.60;;;2.40;;
2039;SDS011;1025;42.686;23.350;2023-04-03T21:25:14;2.63;;;2.50;;
2039;SDS011;1025;42.686;23.350;2023-04-03T21:28:40;3.27;;;2.97;;
2039;SDS011;1025;42.686;23.350;2023-04-03T21:32:06;3.23;;;2.93;;
2039;SDS011;1025;42.686;23.350;2023-04-03T21:35:33;3.53;;;2.67;;
2039;SDS011;1025;42.686;23.350;2023-04-03T21:39:04;2.60;;;2.40;;